Aérodrome :
LOGIN :

S'inscrire | Disclaimer

   EN    FR    IT 

 










Légende :    VFR   VFR Marginal   IFR   IFR Intensif   IFR Très Intensif
Visi : 
Plafond : 
>= 8 km
>= 3000ft
5 à 8 km
1000 à 3000 ft
1500m à 5 km
500 à 1000 ft
800 à 1500m
200 à 500 ft
< 800m
< 200 ft
Symboles :   Orages  Brouillard  Fortes neiges  Fortes précipitations  Vent > 20 kt
SIGMETs :   Divers  Orages  Givrage  Turbulence  Onde Orograph.  Cendres Volcan.







- Altitude de l'aérodrome : 13 ft
- Code IATA : OST


EBOS - Oostend bruges Int.

DERNIER METAR :
  • 131620Z 19014KT 6000 -SHRA SCT007 SCT016 BKN032 07/06 Q0992 TEMPO 22018G30KT 3000 SHRA BKN014TCU

METARs EXPIRÉS :
  • 131550Z 19013KT 9999 -SHRA SCT007 BKN009 BKN031 07/05 Q0993 TEMPO 22018G30KT 3000 SHRA BKN014TCU
  • 131520Z 19011KT 7000 -SHRA FEW005 BKN007 BKN032 07/05 Q0994 TEMPO 22018G30KT 3000 SHRA BKN014TCU
  • 131450Z 19011KT 8000 -SHRA SCT007 SCT016 BKN036 07/05 Q0995 TEMPO 22018/30KT 3000 SHRA BKN008 BKN014TCU
  • 131420Z 19011KT 9999 -RA SCT010 BKN037 06/05 Q0995 TEMPO 22018/30KT 3000 RA SHRA SCT008 BKN014TCU
  • 131350Z 19010KT 9999 -RA SCT010 BKN037 06/05 Q0996 TEMPO 2500 MOD RA BKN008

TAF COR TAF EBOS
Valide du 13 à 12h jusqu'au 14 à 18h UTC


131115Z 1312/1418 22015KT 9999 SCT015
TEMPO 1312/1317 22018G30KT 3000 RA SHRA SCT008 BKN014TCU
TEMPO 1317/1321 29020G35KT
TEMPO 1322/1401 28025G40KT 4000 SHRA SHRAGS BKN012 SCT020CB
PROB30
TEMPO 1401/1412 4000 SHRA BKN014CB
BECMG 1412/1414 25012KT
Pas de NOTAMs connus pour ce terrain.
1 SIGMET publié pour la FIR Brussels (EBBU) :
 
Turbulence forte
EBBU SIGMET 03 VALID 131600/132000 EBBR
EBBU BRUSSELS FIR SEV TURB FCST W OF LINE N5130 E00500 - N5020 E00400 SFC/FL50 MOV E35KT INTSF=



MET'MAP, la Météo Aéronautique d'un coup d'oeil ! - Copyright ORBIFLY Décembre 2007 - Disclaimer

ORBIFLY MET'MAP TEAM :

Programmation & Développement : Alexandra Zaïnal
Conception & Développement : Baudouin d'Aumeries
Co-Programmation & Développement : Marc-Olivier Méhu
Soutien technique & logistique : Manuel Goepfert

Contact : metmap@orbifly.com




SOURCES & CREDITS :

   NOAA